Startpagina
METAR-TAF:

METAR-TAF

Vliegvelden :

Mauritius, Mauritius

breedte: 20-26S, lengte: 057-40E, hoogte: 55 m

Actueel weer

Dit bericht is 1 uur en het 16 minuten geleden gemaakt, om 19:00 UTC
Wind 4 kt uit het noordnoordwesten
Temperatuur 26°C
Vochtigheid 89%
Druk 1014 hPa
Zicht 10 km of meer
Verspreide wolken op 1600 ft
Verspreide wolken op 10000 ft
buien in de omgeving

METAR: FIMP 241900Z 34004KT 9999 VCSH SCT016 SCT100 26/24 Q1014

Tijdstip: 00:16 (20:16 UTC)

Verwachting

Dit bericht is 3 uur en het 6 minuten geleden gemaakt, om 17:10 UTC
Verwachting geldig van 24 om 18 UTC tot 26 om 00 UTC
Wind 3 kt uit het noordnoordwesten
Zicht 10 km of meer
Verspreide wolken op 1500 ft
Gebroken wolken op 25000 ft
Kans %
tussen 30 en het UTC
Tijdelijke
van 24 om 18 UTC tot 25 om 06 UTC
Zicht: 7000 m
Weinig wolken op 1000 ft
Gebroken wolken op 1400 ft
Gebroken wolken op 5000 ft
lichte regenbuien

TAF: FIMP 241710Z 2418/2600 33003KT 9999 SCT015 BKN250 PROB 30 TEMPO 2418/2506 7000 -SHRA FEW010 BKN014 BKN050

Waarnemingen en weersverwachtingen van meer dan 4000 vliegvelden (METAR en TAF).

De beschikbare stations zijn de gele en rode punten op de kaart.

Ga met uw muis naar het station om de naam te zien.

Klik dan om waarnemingen en weersverwachtingen te zien.

kaart wijzigen: klik op de groene knoppen met een zwart kruis om in te zoomen, op de groene knop met een streepje om uit te zoomen of op de groene pijlen voor aangrenzende kaarten.


METAR-TAF: